sensor_id;sensor_type;location;lat;lon;timestamp;P1;durP1;ratioP1;P2;durP2;ratioP2
33654;SDS011;19997;51.274;22.506;2023-04-25T00:01:03;9.05;;;6.82;;
33654;SDS011;19997;51.274;22.506;2023-04-25T00:03:30;12.45;;;7.63;;
33654;SDS011;19997;51.274;22.506;2023-04-25T00:05:58;11.85;;;7.47;;
33654;SDS011;19997;51.274;22.506;2023-04-25T00:08:27;11.23;;;7.65;;
33654;SDS011;19997;51.274;22.506;2023-04-25T00:10:56;10.25;;;7.63;;
33654;SDS011;19997;51.274;22.506;2023-04-25T00:13:23;13.52;;;8.27;;
33654;SDS011;19997;51.274;22.506;2023-04-25T00:15:51;12.88;;;8.75;;
33654;SDS011;19997;51.274;22.506;2023-04-25T00:18:19;16.17;;;8.05;;
33654;SDS011;19997;51.274;22.506;2023-04-25T00:20:46;11.30;;;7.53;;
33654;SDS011;19997;51.274;22.506;2023-04-25T00:23:13;14.18;;;7.95;;
33654;SDS011;19997;51.274;22.506;2023-04-25T00:25:43;11.80;;;8.45;;
33654;SDS011;19997;51.274;22.506;2023-04-25T00:28:12;19.25;;;8.57;;
33654;SDS011;19997;51.274;22.506;2023-04-25T00:30:39;14.05;;;8.57;;
33654;SDS011;19997;51.274;22.506;2023-04-25T00:33:07;12.35;;;8.82;;
33654;SDS011;19997;51.274;22.506;2023-04-25T00:35:34;12.98;;;8.88;;
33654;SDS011;19997;51.274;22.506;2023-04-25T00:38:01;15.75;;;9.52;;
33654;SDS011;19997;51.274;22.506;2023-04-25T00:40:29;13.73;;;8.77;;
33654;SDS011;19997;51.274;22.506;2023-04-25T00:42:56;14.38;;;9.45;;
33654;SDS011;19997;51.274;22.506;2023-04-25T00:45:24;14.77;;;9.15;;
33654;SDS011;19997;51.274;22.506;2023-04-25T00:47:54;18.52;;;9.95;;
33654;SDS011;19997;51.274;22.506;2023-04-25T00:50:22;13.27;;;9.30;;
33654;SDS011;19997;51.274;22.506;2023-04-25T00:52:49;12.60;;;8.38;;
33654;SDS011;19997;51.274;22.506;2023-04-25T00:55:17;18.30;;;9.13;;
33654;SDS011;19997;51.274;22.506;2023-04-25T00:57:44;18.30;;;9.55;;
33654;SDS011;19997;51.274;22.506;2023-04-25T01:00:12;12.80;;;9.52;;
33654;SDS011;19997;51.274;22.506;2023-04-25T01:02:41;14.20;;;9.02;;
33654;SDS011;19997;51.274;22.506;2023-04-25T01:05:09;15.50;;;8.77;;
33654;SDS011;19997;51.274;22.506;2023-04-25T01:07:37;17.25;;;8.27;;
33654;SDS011;19997;51.274;22.506;2023-04-25T01:10:05;16.95;;;9.48;;
33654;SDS011;19997;51.274;22.506;2023-04-25T01:12:33;14.90;;;9.27;;
33654;SDS011;19997;51.274;22.506;2023-04-25T01:15:00;14.95;;;8.70;;
33654;SDS011;19997;51.274;22.506;2023-04-25T01:17:27;16.60;;;10.02;;
33654;SDS011;19997;51.274;22.506;2023-04-25T01:19:57;18.75;;;9.60;;
33654;SDS011;19997;51.274;22.506;2023-04-25T01:22:26;14.00;;;9.50;;
33654;SDS011;19997;51.274;22.506;2023-04-25T01:24:54;18.05;;;10.55;;
33654;SDS011;19997;51.274;22.506;2023-04-25T01:27:21;18.30;;;9.75;;
33654;SDS011;19997;51.274;22.506;2023-04-25T01:29:49;18.15;;;9.52;;
33654;SDS011;19997;51.274;22.506;2023-04-25T01:32:17;14.85;;;9.57;;
33654;SDS011;19997;51.274;22.506;2023-04-25T01:34:45;14.30;;;9.02;;
33654;SDS011;19997;51.274;22.506;2023-04-25T01:37:12;19.48;;;9.82;;
33654;SDS011;19997;51.274;22.506;2023-04-25T01:39:41;17.33;;;9.68;;
33654;SDS011;19997;51.274;22.506;2023-04-25T01:42:09;19.65;;;9.52;;
33654;SDS011;19997;51.274;22.506;2023-04-25T01:44:36;19.58;;;9.70;;
33654;SDS011;19997;51.274;22.506;2023-04-25T01:47:04;13.25;;;9.20;;
33654;SDS011;19997;51.274;22.506;2023-04-25T01:49:31;15.55;;;9.70;;
33654;SDS011;19997;51.274;22.506;2023-04-25T01:51:58;14.20;;;9.25;;
33654;SDS011;19997;51.274;22.506;2023-04-25T01:54:26;18.67;;;9.27;;
33654;SDS011;19997;51.274;22.506;2023-04-25T01:56:55;14.15;;;9.45;;
33654;SDS011;19997;51.274;22.506;2023-04-25T01:59:23;17.52;;;9.23;;
33654;SDS011;19997;51.274;22.506;2023-04-25T02:02:10;15.43;;;9.82;;
33654;SDS011;19997;51.274;22.506;2023-04-25T02:04:37;13.88;;;9.32;;
33654;SDS011;19997;51.274;22.506;2023-04-25T02:07:04;14.52;;;9.35;;
33654;SDS011;19997;51.274;22.506;2023-04-25T02:09:41;15.20;;;8.98;;
33654;SDS011;19997;51.274;22.506;2023-04-25T02:12:12;18.73;;;9.75;;
33654;SDS011;19997;51.274;22.506;2023-04-25T02:15:08;14.32;;;9.50;;
33654;SDS011;19997;51.274;22.506;2023-04-25T02:17:51;16.48;;;9.52;;
33654;SDS011;19997;51.274;22.506;2023-04-25T02:20:19;18.95;;;8.93;;
33654;SDS011;19997;51.274;22.506;2023-04-25T02:22:47;16.25;;;7.88;;
33654;SDS011;19997;51.274;22.506;2023-04-25T02:25:15;12.30;;;8.40;;
33654;SDS011;19997;51.274;22.506;2023-04-25T02:27:43;13.50;;;8.82;;
33654;SDS011;19997;51.274;22.506;2023-04-25T02:30:11;12.02;;;8.57;;
33654;SDS011;19997;51.274;22.506;2023-04-25T02:32:38;14.80;;;8.73;;
33654;SDS011;19997;51.274;22.506;2023-04-25T02:35:06;13.18;;;9.07;;
33654;SDS011;19997;51.274;22.506;2023-04-25T02:37:34;15.00;;;8.95;;
33654;SDS011;19997;51.274;22.506;2023-04-25T02:40:02;15.90;;;8.32;;
33654;SDS011;19997;51.274;22.506;2023-04-25T02:42:30;16.27;;;9.13;;
33654;SDS011;19997;51.274;22.506;2023-04-25T02:44:59;18.35;;;10.00;;
33654;SDS011;19997;51.274;22.506;2023-04-25T02:47:27;13.75;;;8.90;;
33654;SDS011;19997;51.274;22.506;2023-04-25T02:49:55;12.32;;;8.88;;
33654;SDS011;19997;51.274;22.506;2023-04-25T02:52:22;14.02;;;8.50;;
33654;SDS011;19997;51.274;22.506;2023-04-25T02:54:57;15.85;;;8.98;;
33654;SDS011;19997;51.274;22.506;2023-04-25T02:57:26;17.63;;;8.98;;
33654;SDS011;19997;51.274;22.506;2023-04-25T02:59:53;13.13;;;8.57;;
33654;SDS011;19997;51.274;22.506;2023-04-25T03:02:21;14.65;;;8.63;;
33654;SDS011;19997;51.274;22.506;2023-04-25T03:04:48;13.60;;;8.38;;
33654;SDS011;19997;51.274;22.506;2023-04-25T03:07:15;13.30;;;7.95;;
33654;SDS011;19997;51.274;22.506;2023-04-25T03:09:43;12.10;;;7.53;;
33654;SDS011;19997;51.274;22.506;2023-04-25T03:12:10;13.60;;;7.60;;
33654;SDS011;19997;51.274;22.506;2023-04-25T03:14:37;11.18;;;7.70;;
33654;SDS011;19997;51.274;22.506;2023-04-25T03:17:04;16.27;;;8.57;;
33654;SDS011;19997;51.274;22.506;2023-04-25T03:19:35;11.10;;;7.55;;
33654;SDS011;19997;51.274;22.506;2023-04-25T03:22:02;12.63;;;7.85;;
33654;SDS011;19997;51.274;22.506;2023-04-25T03:24:29;12.68;;;7.82;;
33654;SDS011;19997;51.274;22.506;2023-04-25T03:26:57;10.57;;;6.93;;
33654;SDS011;19997;51.274;22.506;2023-04-25T03:29:24;11.02;;;7.70;;
33654;SDS011;19997;51.274;22.506;2023-04-25T03:31:54;14.33;;;8.23;;
33654;SDS011;19997;51.274;22.506;2023-04-25T03:34:21;11.45;;;7.38;;
33654;SDS011;19997;51.274;22.506;2023-04-25T03:36:50;12.27;;;7.30;;
33654;SDS011;19997;51.274;22.506;2023-04-25T03:39:18;13.27;;;8.00;;
33654;SDS011;19997;51.274;22.506;2023-04-25T03:41:48;8.23;;;6.65;;
33654;SDS011;19997;51.274;22.506;2023-04-25T03:44:17;13.13;;;7.20;;
33654;SDS011;19997;51.274;22.506;2023-04-25T03:46:44;10.73;;;6.82;;
33654;SDS011;19997;51.274;22.506;2023-04-25T03:49:11;10.05;;;7.20;;
33654;SDS011;19997;51.274;22.506;2023-04-25T03:51:55;12.30;;;7.53;;
33654;SDS011;19997;51.274;22.506;2023-04-25T03:54:23;13.75;;;8.30;;
33654;SDS011;19997;51.274;22.506;2023-04-25T03:56:56;15.73;;;8.35;;
33654;SDS011;19997;51.274;22.506;2023-04-25T03:59:26;13.32;;;7.90;;
33654;SDS011;19997;51.274;22.506;2023-04-25T04:01:53;12.93;;;7.55;;
33654;SDS011;19997;51.274;22.506;2023-04-25T04:04:21;10.05;;;7.90;;
33654;SDS011;19997;51.274;22.506;2023-04-25T04:06:48;10.95;;;7.18;;
33654;SDS011;19997;51.274;22.506;2023-04-25T04:09:22;12.05;;;7.22;;
33654;SDS011;19997;51.274;22.506;2023-04-25T04:11:50;13.45;;;8.93;;
33654;SDS011;19997;51.274;22.506;2023-04-25T04:14:17;11.23;;;7.95;;
33654;SDS011;19997;51.274;22.506;2023-04-25T04:16:46;10.88;;;7.80;;
33654;SDS011;19997;51.274;22.506;2023-04-25T04:19:13;19.50;;;8.45;;
33654;SDS011;19997;51.274;22.506;2023-04-25T04:21:46;13.07;;;8.10;;
33654;SDS011;19997;51.274;22.506;2023-04-25T04:24:14;17.80;;;8.38;;
33654;SDS011;19997;51.274;22.506;2023-04-25T04:27:12;15.15;;;8.93;;
33654;SDS011;19997;51.274;22.506;2023-04-25T04:29:52;13.93;;;9.07;;
33654;SDS011;19997;51.274;22.506;2023-04-25T04:32:31;14.73;;;9.02;;
33654;SDS011;19997;51.274;22.506;2023-04-25T04:35:00;13.35;;;9.00;;
33654;SDS011;19997;51.274;22.506;2023-04-25T04:37:27;14.43;;;9.65;;
33654;SDS011;19997;51.274;22.506;2023-04-25T04:39:56;13.95;;;9.32;;
33654;SDS011;19997;51.274;22.506;2023-04-25T04:42:31;15.20;;;9.52;;
33654;SDS011;19997;51.274;22.506;2023-04-25T04:45:04;13.52;;;8.73;;
33654;SDS011;19997;51.274;22.506;2023-04-25T04:47:51;13.57;;;8.93;;
33654;SDS011;19997;51.274;22.506;2023-04-25T04:50:38;18.40;;;9.13;;
33654;SDS011;19997;51.274;22.506;2023-04-25T04:53:24;17.00;;;9.60;;
33654;SDS011;19997;51.274;22.506;2023-04-25T04:56:11;20.25;;;9.63;;
33654;SDS011;19997;51.274;22.506;2023-04-25T04:59:16;16.83;;;9.18;;
33654;SDS011;19997;51.274;22.506;2023-04-25T05:02:01;21.33;;;9.70;;
33654;SDS011;19997;51.274;22.506;2023-04-25T05:04:55;17.90;;;9.75;;
33654;SDS011;19997;51.274;22.506;2023-04-25T05:07:44;24.33;;;10.63;;
33654;SDS011;19997;51.274;22.506;2023-04-25T05:10:28;18.77;;;10.15;;
33654;SDS011;19997;51.274;22.506;2023-04-25T05:12:55;16.75;;;10.68;;
33654;SDS011;19997;51.274;22.506;2023-04-25T05:15:30;18.30;;;10.30;;
33654;SDS011;19997;51.274;22.506;2023-04-25T05:18:15;17.95;;;10.23;;
33654;SDS011;19997;51.274;22.506;2023-04-25T05:20:56;22.30;;;10.48;;
33654;SDS011;19997;51.274;22.506;2023-04-25T05:23:36;21.08;;;10.57;;
33654;SDS011;19997;51.274;22.506;2023-04-25T05:26:23;18.02;;;10.60;;
33654;SDS011;19997;51.274;22.506;2023-04-25T05:29:19;20.13;;;11.35;;
33654;SDS011;19997;51.274;22.506;2023-04-25T05:32:13;16.77;;;10.63;;
33654;SDS011;19997;51.274;22.506;2023-04-25T05:34:40;22.15;;;11.80;;
33654;SDS011;19997;51.274;22.506;2023-04-25T05:37:17;22.23;;;12.20;;
33654;SDS011;19997;51.274;22.506;2023-04-25T05:39:53;23.65;;;10.82;;
33654;SDS011;19997;51.274;22.506;2023-04-25T05:42:38;22.13;;;10.80;;
33654;SDS011;19997;51.274;22.506;2023-04-25T05:45:32;21.75;;;12.45;;
33654;SDS011;19997;51.274;22.506;2023-04-25T05:48:09;21.50;;;12.30;;
33654;SDS011;19997;51.274;22.506;2023-04-25T05:51:00;21.60;;;11.20;;
33654;SDS011;19997;51.274;22.506;2023-04-25T05:53:45;25.90;;;11.15;;
33654;SDS011;19997;51.274;22.506;2023-04-25T05:56:13;20.55;;;11.63;;
33654;SDS011;19997;51.274;22.506;2023-04-25T05:58:41;18.52;;;10.40;;
33654;SDS011;19997;51.274;22.506;2023-04-25T06:01:10;22.33;;;9.73;;
33654;SDS011;19997;51.274;22.506;2023-04-25T06:03:39;20.15;;;10.85;;
33654;SDS011;19997;51.274;22.506;2023-04-25T06:06:08;16.30;;;9.40;;
33654;SDS011;19997;51.274;22.506;2023-04-25T06:08:35;17.63;;;10.40;;
33654;SDS011;19997;51.274;22.506;2023-04-25T06:11:03;19.95;;;10.43;;
33654;SDS011;19997;51.274;22.506;2023-04-25T06:13:31;18.63;;;10.60;;
33654;SDS011;19997;51.274;22.506;2023-04-25T06:15:58;23.17;;;11.68;;
33654;SDS011;19997;51.274;22.506;2023-04-25T06:18:25;18.35;;;10.32;;
33654;SDS011;19997;51.274;22.506;2023-04-25T06:20:54;18.45;;;10.23;;
33654;SDS011;19997;51.274;22.506;2023-04-25T06:23:22;20.60;;;11.43;;
33654;SDS011;19997;51.274;22.506;2023-04-25T06:25:58;20.98;;;12.40;;
33654;SDS011;19997;51.274;22.506;2023-04-25T06:28:26;17.02;;;10.57;;
33654;SDS011;19997;51.274;22.506;2023-04-25T06:30:54;21.73;;;13.07;;
33654;SDS011;19997;51.274;22.506;2023-04-25T06:33:21;16.65;;;11.07;;
33654;SDS011;19997;51.274;22.506;2023-04-25T06:35:50;16.20;;;10.95;;
33654;SDS011;19997;51.274;22.506;2023-04-25T06:38:23;18.40;;;10.75;;
33654;SDS011;19997;51.274;22.506;2023-04-25T06:40:52;21.48;;;11.45;;
33654;SDS011;19997;51.274;22.506;2023-04-25T06:43:19;16.55;;;11.35;;
33654;SDS011;19997;51.274;22.506;2023-04-25T06:45:55;21.10;;;12.20;;
33654;SDS011;19997;51.274;22.506;2023-04-25T06:48:26;18.63;;;11.18;;
33654;SDS011;19997;51.274;22.506;2023-04-25T06:50:53;21.10;;;11.60;;
33654;SDS011;19997;51.274;22.506;2023-04-25T06:53:24;20.45;;;11.63;;
33654;SDS011;19997;51.274;22.506;2023-04-25T06:55:57;17.27;;;10.90;;
33654;SDS011;19997;51.274;22.506;2023-04-25T06:58:28;18.38;;;11.23;;
33654;SDS011;19997;51.274;22.506;2023-04-25T07:01:16;17.67;;;11.85;;
33654;SDS011;19997;51.274;22.506;2023-04-25T07:03:43;21.15;;;11.50;;
33654;SDS011;19997;51.274;22.506;2023-04-25T07:06:15;18.77;;;11.90;;
33654;SDS011;19997;51.274;22.506;2023-04-25T07:08:44;22.65;;;12.25;;
33654;SDS011;19997;51.274;22.506;2023-04-25T07:11:11;20.75;;;12.13;;
33654;SDS011;19997;51.274;22.506;2023-04-25T07:13:39;17.65;;;11.88;;
33654;SDS011;19997;51.274;22.506;2023-04-25T07:16:06;22.73;;;12.30;;
33654;SDS011;19997;51.274;22.506;2023-04-25T07:18:34;23.45;;;12.30;;
33654;SDS011;19997;51.274;22.506;2023-04-25T07:21:02;21.85;;;12.20;;
33654;SDS011;19997;51.274;22.506;2023-04-25T07:23:32;19.03;;;11.07;;
33654;SDS011;19997;51.274;22.506;2023-04-25T07:26:04;17.05;;;11.18;;
33654;SDS011;19997;51.274;22.506;2023-04-25T07:28:31;17.25;;;10.68;;
33654;SDS011;19997;51.274;22.506;2023-04-25T07:30:58;16.33;;;10.95;;
33654;SDS011;19997;51.274;22.506;2023-04-25T07:33:25;14.73;;;10.63;;
33654;SDS011;19997;51.274;22.506;2023-04-25T07:35:53;17.63;;;10.35;;
33654;SDS011;19997;51.274;22.506;2023-04-25T07:38:20;18.65;;;10.25;;
33654;SDS011;19997;51.274;22.506;2023-04-25T07:40:48;17.67;;;11.10;;
33654;SDS011;19997;51.274;22.506;2023-04-25T07:43:17;20.88;;;11.25;;
33654;SDS011;19997;51.274;22.506;2023-04-25T07:45:57;16.58;;;11.15;;
33654;SDS011;19997;51.274;22.506;2023-04-25T07:48:26;15.55;;;9.75;;
33654;SDS011;19997;51.274;22.506;2023-04-25T07:50:53;19.42;;;10.77;;
33654;SDS011;19997;51.274;22.506;2023-04-25T07:53:20;12.73;;;8.98;;
33654;SDS011;19997;51.274;22.506;2023-04-25T07:55:55;20.02;;;9.70;;
33654;SDS011;19997;51.274;22.506;2023-04-25T07:58:23;25.77;;;10.30;;
33654;SDS011;19997;51.274;22.506;2023-04-25T08:00:54;13.75;;;9.02;;
33654;SDS011;19997;51.274;22.506;2023-04-25T08:03:34;16.92;;;8.90;;
33654;SDS011;19997;51.274;22.506;2023-04-25T08:06:04;13.32;;;9.48;;
33654;SDS011;19997;51.274;22.506;2023-04-25T08:08:35;17.40;;;9.07;;
33654;SDS011;19997;51.274;22.506;2023-04-25T08:11:05;14.63;;;8.60;;
33654;SDS011;19997;51.274;22.506;2023-04-25T08:13:33;13.55;;;9.30;;
33654;SDS011;19997;51.274;22.506;2023-04-25T08:16:00;14.70;;;7.63;;
33654;SDS011;19997;51.274;22.506;2023-04-25T08:18:28;10.80;;;7.22;;
33654;SDS011;19997;51.274;22.506;2023-04-25T08:20:56;6.68;;;4.45;;
33654;SDS011;19997;51.274;22.506;2023-04-25T08:23:24;28.45;;;6.95;;
33654;SDS011;19997;51.274;22.506;2023-04-25T08:26:00;34.97;;;5.65;;
33654;SDS011;19997;51.274;22.506;2023-04-25T08:28:28;13.27;;;5.50;;
33654;SDS011;19997;51.274;22.506;2023-04-25T08:30:59;11.37;;;5.30;;
33654;SDS011;19997;51.274;22.506;2023-04-25T08:33:33;7.95;;;4.93;;
33654;SDS011;19997;51.274;22.506;2023-04-25T08:36:11;5.90;;;4.30;;
33654;SDS011;19997;51.274;22.506;2023-04-25T08:38:38;6.07;;;4.78;;
33654;SDS011;19997;51.274;22.506;2023-04-25T08:41:08;6.57;;;4.40;;
33654;SDS011;19997;51.274;22.506;2023-04-25T08:43:38;12.57;;;6.03;;
33654;SDS011;19997;51.274;22.506;2023-04-25T08:46:10;13.90;;;5.65;;
33654;SDS011;19997;51.274;22.506;2023-04-25T08:48:48;9.07;;;5.33;;
33654;SDS011;19997;51.274;22.506;2023-04-25T08:51:21;14.73;;;6.73;;
33654;SDS011;19997;51.274;22.506;2023-04-25T08:53:50;9.55;;;4.88;;
33654;SDS011;19997;51.274;22.506;2023-04-25T08:56:19;7.03;;;4.97;;
33654;SDS011;19997;51.274;22.506;2023-04-25T08:58:48;9.05;;;5.93;;
33654;SDS011;19997;51.274;22.506;2023-04-25T09:01:17;8.90;;;4.25;;
33654;SDS011;19997;51.274;22.506;2023-04-25T09:03:50;5.55;;;3.75;;
33654;SDS011;19997;51.274;22.506;2023-04-25T09:06:17;4.97;;;4.03;;
33654;SDS011;19997;51.274;22.506;2023-04-25T09:11:16;8.32;;;5.20;;
33654;SDS011;19997;51.274;22.506;2023-04-25T09:13:43;6.68;;;4.90;;
33654;SDS011;19997;51.274;22.506;2023-04-25T09:16:37;7.95;;;6.13;;
33654;SDS011;19997;51.274;22.506;2023-04-25T09:19:40;10.60;;;7.13;;
33654;SDS011;19997;51.274;22.506;2023-04-25T09:22:29;12.13;;;7.43;;
33654;SDS011;19997;51.274;22.506;2023-04-25T09:24:57;12.65;;;8.40;;
33654;SDS011;19997;51.274;22.506;2023-04-25T09:27:28;16.15;;;7.15;;
33654;SDS011;19997;51.274;22.506;2023-04-25T09:30:03;28.33;;;13.05;;
33654;SDS011;19997;51.274;22.506;2023-04-25T09:32:50;22.08;;;9.27;;
33654;SDS011;19997;51.274;22.506;2023-04-25T09:35:25;15.82;;;7.38;;
33654;SDS011;19997;51.274;22.506;2023-04-25T09:37:53;11.80;;;6.82;;
33654;SDS011;19997;51.274;22.506;2023-04-25T09:40:40;7.57;;;5.40;;
33654;SDS011;19997;51.274;22.506;2023-04-25T09:43:18;7.40;;;5.15;;
33654;SDS011;19997;51.274;22.506;2023-04-25T09:45:48;7.53;;;5.72;;
33654;SDS011;19997;51.274;22.506;2023-04-25T09:48:19;10.60;;;6.30;;
33654;SDS011;19997;51.274;22.506;2023-04-25T09:51:03;11.25;;;7.10;;
33654;SDS011;19997;51.274;22.506;2023-04-25T09:53:32;8.27;;;6.03;;
33654;SDS011;19997;51.274;22.506;2023-04-25T09:56:20;13.27;;;6.18;;
33654;SDS011;19997;51.274;22.506;2023-04-25T09:58:49;9.13;;;6.15;;
33654;SDS011;19997;51.274;22.506;2023-04-25T10:01:20;9.85;;;5.93;;
33654;SDS011;19997;51.274;22.506;2023-04-25T10:04:07;8.27;;;5.40;;
33654;SDS011;19997;51.274;22.506;2023-04-25T10:06:40;9.30;;;5.93;;
33654;SDS011;19997;51.274;22.506;2023-04-25T10:09:09;7.18;;;5.47;;
33654;SDS011;19997;51.274;22.506;2023-04-25T10:11:38;7.97;;;5.65;;
33654;SDS011;19997;51.274;22.506;2023-04-25T10:14:06;8.82;;;6.38;;
33654;SDS011;19997;51.274;22.506;2023-04-25T10:16:34;10.60;;;6.38;;
33654;SDS011;19997;51.274;22.506;2023-04-25T10:19:02;9.38;;;6.90;;
33654;SDS011;19997;51.274;22.506;2023-04-25T10:21:31;9.77;;;6.88;;
33654;SDS011;19997;51.274;22.506;2023-04-25T10:24:00;11.32;;;6.13;;
33654;SDS011;19997;51.274;22.506;2023-04-25T10:26:28;12.38;;;8.38;;
33654;SDS011;19997;51.274;22.506;2023-04-25T10:28:55;11.13;;;8.00;;
33654;SDS011;19997;51.274;22.506;2023-04-25T10:31:23;11.00;;;7.63;;
33654;SDS011;19997;51.274;22.506;2023-04-25T10:33:51;11.07;;;8.00;;
33654;SDS011;19997;51.274;22.506;2023-04-25T10:36:18;10.95;;;8.85;;
33654;SDS011;19997;51.274;22.506;2023-04-25T10:38:49;13.02;;;8.88;;
33654;SDS011;19997;51.274;22.506;2023-04-25T10:41:17;13.38;;;7.82;;
33654;SDS011;19997;51.274;22.506;2023-04-25T10:43:46;11.20;;;8.38;;
33654;SDS011;19997;51.274;22.506;2023-04-25T10:46:15;12.43;;;8.55;;
33654;SDS011;19997;51.274;22.506;2023-04-25T10:48:45;12.18;;;8.38;;
33654;SDS011;19997;51.274;22.506;2023-04-25T10:51:17;9.65;;;6.43;;
33654;SDS011;19997;51.274;22.506;2023-04-25T10:53:57;6.85;;;5.20;;
33654;SDS011;19997;51.274;22.506;2023-04-25T10:56:26;12.07;;;4.78;;
33654;SDS011;19997;51.274;22.506;2023-04-25T11:01:41;8.85;;;6.47;;
33654;SDS011;19997;51.274;22.506;2023-04-25T11:04:19;10.93;;;5.20;;
33654;SDS011;19997;51.274;22.506;2023-04-25T11:06:48;7.45;;;5.55;;
33654;SDS011;19997;51.274;22.506;2023-04-25T11:09:26;8.05;;;6.93;;
33654;SDS011;19997;51.274;22.506;2023-04-25T11:11:53;7.80;;;6.15;;
33654;SDS011;19997;51.274;22.506;2023-04-25T11:14:21;8.35;;;6.13;;
33654;SDS011;19997;51.274;22.506;2023-04-25T11:16:52;11.93;;;5.95;;
33654;SDS011;19997;51.274;22.506;2023-04-25T11:19:20;7.40;;;6.00;;
33654;SDS011;19997;51.274;22.506;2023-04-25T11:21:47;7.82;;;5.53;;
33654;SDS011;19997;51.274;22.506;2023-04-25T11:24:15;7.25;;;5.72;;
33654;SDS011;19997;51.274;22.506;2023-04-25T11:26:44;10.20;;;6.20;;
33654;SDS011;19997;51.274;22.506;2023-04-25T11:29:14;9.63;;;5.70;;
33654;SDS011;19997;51.274;22.506;2023-04-25T11:31:42;8.50;;;6.28;;
33654;SDS011;19997;51.274;22.506;2023-04-25T11:34:10;10.38;;;6.50;;
33654;SDS011;19997;51.274;22.506;2023-04-25T11:36:38;10.40;;;6.10;;
33654;SDS011;19997;51.274;22.506;2023-04-25T11:39:05;10.32;;;6.78;;
33654;SDS011;19997;51.274;22.506;2023-04-25T11:41:33;7.22;;;6.03;;
33654;SDS011;19997;51.274;22.506;2023-04-25T11:44:01;9.95;;;7.43;;
33654;SDS011;19997;51.274;22.506;2023-04-25T11:46:29;7.43;;;4.35;;
33654;SDS011;19997;51.274;22.506;2023-04-25T11:48:56;5.25;;;3.55;;
33654;SDS011;19997;51.274;22.506;2023-04-25T11:51:24;3.78;;;3.30;;
33654;SDS011;19997;51.274;22.506;2023-04-25T11:53:51;3.30;;;2.58;;
33654;SDS011;19997;51.274;22.506;2023-04-25T11:56:20;4.80;;;2.40;;
33654;SDS011;19997;51.274;22.506;2023-04-25T11:58:55;3.72;;;2.47;;
33654;SDS011;19997;51.274;22.506;2023-04-25T12:01:28;2.25;;;1.92;;
33654;SDS011;19997;51.274;22.506;2023-04-25T12:03:57;4.40;;;2.92;;
33654;SDS011;19997;51.274;22.506;2023-04-25T12:06:36;5.32;;;3.83;;
33654;SDS011;19997;51.274;22.506;2023-04-25T12:09:07;7.03;;;4.75;;
33654;SDS011;19997;51.274;22.506;2023-04-25T12:11:40;5.30;;;4.07;;
33654;SDS011;19997;51.274;22.506;2023-04-25T12:14:08;6.68;;;5.15;;
33654;SDS011;19997;51.274;22.506;2023-04-25T12:16:43;7.95;;;5.47;;
33654;SDS011;19997;51.274;22.506;2023-04-25T12:19:13;7.70;;;5.82;;
33654;SDS011;19997;51.274;22.506;2023-04-25T12:21:41;6.97;;;5.55;;
33654;SDS011;19997;51.274;22.506;2023-04-25T12:24:09;8.18;;;6.03;;
33654;SDS011;19997;51.274;22.506;2023-04-25T12:26:47;8.88;;;6.30;;
33654;SDS011;19997;51.274;22.506;2023-04-25T12:29:16;9.35;;;6.70;;
33654;SDS011;19997;51.274;22.506;2023-04-25T12:31:46;8.70;;;6.65;;
33654;SDS011;19997;51.274;22.506;2023-04-25T12:34:13;8.68;;;5.68;;
33654;SDS011;19997;51.274;22.506;2023-04-25T12:36:40;9.60;;;7.70;;
33654;SDS011;19997;51.274;22.506;2023-04-25T12:39:07;9.15;;;6.93;;
33654;SDS011;19997;51.274;22.506;2023-04-25T12:41:35;12.65;;;7.97;;
33654;SDS011;19997;51.274;22.506;2023-04-25T12:44:02;9.63;;;7.32;;
33654;SDS011;19997;51.274;22.506;2023-04-25T12:46:30;11.45;;;8.20;;
33654;SDS011;19997;51.274;22.506;2023-04-25T12:48:58;10.88;;;7.45;;
33654;SDS011;19997;51.274;22.506;2023-04-25T12:51:26;9.90;;;7.95;;
33654;SDS011;19997;51.274;22.506;2023-04-25T12:53:53;10.68;;;7.32;;
33654;SDS011;19997;51.274;22.506;2023-04-25T12:56:21;11.60;;;8.02;;
33654;SDS011;19997;51.274;22.506;2023-04-25T12:58:48;9.60;;;7.05;;
33654;SDS011;19997;51.274;22.506;2023-04-25T13:01:15;9.80;;;7.30;;
33654;SDS011;19997;51.274;22.506;2023-04-25T13:03:42;11.00;;;7.55;;
33654;SDS011;19997;51.274;22.506;2023-04-25T13:06:11;10.05;;;7.07;;
33654;SDS011;19997;51.274;22.506;2023-04-25T13:08:38;11.13;;;8.13;;
33654;SDS011;19997;51.274;22.506;2023-04-25T13:11:06;10.13;;;7.38;;
33654;SDS011;19997;51.274;22.506;2023-04-25T13:13:33;11.80;;;7.35;;
33654;SDS011;19997;51.274;22.506;2023-04-25T13:16:00;10.60;;;6.97;;
33654;SDS011;19997;51.274;22.506;2023-04-25T13:18:28;9.82;;;7.18;;
33654;SDS011;19997;51.274;22.506;2023-04-25T13:20:55;9.55;;;7.22;;
33654;SDS011;19997;51.274;22.506;2023-04-25T13:23:24;8.93;;;6.50;;
33654;SDS011;19997;51.274;22.506;2023-04-25T13:25:52;9.40;;;6.85;;
33654;SDS011;19997;51.274;22.506;2023-04-25T13:28:20;13.20;;;7.70;;
33654;SDS011;19997;51.274;22.506;2023-04-25T13:30:47;8.88;;;7.00;;
33654;SDS011;19997;51.274;22.506;2023-04-25T13:33:14;13.88;;;11.80;;
33654;SDS011;19997;51.274;22.506;2023-04-25T13:35:42;11.77;;;8.25;;
33654;SDS011;19997;51.274;22.506;2023-04-25T13:38:12;12.90;;;8.75;;
33654;SDS011;19997;51.274;22.506;2023-04-25T13:40:40;24.83;;;15.32;;
33654;SDS011;19997;51.274;22.506;2023-04-25T13:43:07;33.03;;;25.20;;
33654;SDS011;19997;51.274;22.506;2023-04-25T13:45:34;16.10;;;11.45;;
33654;SDS011;19997;51.274;22.506;2023-04-25T13:48:02;13.50;;;9.05;;
33654;SDS011;19997;51.274;22.506;2023-04-25T13:50:29;14.38;;;10.05;;
33654;SDS011;19997;51.274;22.506;2023-04-25T13:52:57;18.23;;;10.90;;
33654;SDS011;19997;51.274;22.506;2023-04-25T13:55:24;17.17;;;11.10;;
33654;SDS011;19997;51.274;22.506;2023-04-25T13:57:52;15.27;;;10.57;;
33654;SDS011;19997;51.274;22.506;2023-04-25T14:00:20;16.23;;;10.20;;
33654;SDS011;19997;51.274;22.506;2023-04-25T14:02:47;16.13;;;10.65;;
33654;SDS011;19997;51.274;22.506;2023-04-25T14:05:14;16.15;;;10.80;;
33654;SDS011;19997;51.274;22.506;2023-04-25T14:07:41;18.85;;;11.20;;
33654;SDS011;19997;51.274;22.506;2023-04-25T14:10:08;15.77;;;10.43;;
33654;SDS011;19997;51.274;22.506;2023-04-25T14:12:36;17.52;;;11.88;;
33654;SDS011;19997;51.274;22.506;2023-04-25T14:15:05;19.13;;;11.90;;
33654;SDS011;19997;51.274;22.506;2023-04-25T14:17:33;20.10;;;11.37;;
33654;SDS011;19997;51.274;22.506;2023-04-25T14:20:03;15.03;;;11.27;;
33654;SDS011;19997;51.274;22.506;2023-04-25T14:22:31;16.27;;;10.43;;
33654;SDS011;19997;51.274;22.506;2023-04-25T14:24:58;17.13;;;11.02;;
33654;SDS011;19997;51.274;22.506;2023-04-25T14:27:25;15.70;;;11.43;;
33654;SDS011;19997;51.274;22.506;2023-04-25T14:29:53;17.10;;;10.82;;
33654;SDS011;19997;51.274;22.506;2023-04-25T14:32:21;15.48;;;10.70;;
33654;SDS011;19997;51.274;22.506;2023-04-25T14:34:48;18.92;;;10.98;;
33654;SDS011;19997;51.274;22.506;2023-04-25T14:37:16;18.48;;;10.88;;
33654;SDS011;19997;51.274;22.506;2023-04-25T14:39:43;18.83;;;11.80;;
33654;SDS011;19997;51.274;22.506;2023-04-25T14:42:10;20.85;;;12.10;;
33654;SDS011;19997;51.274;22.506;2023-04-25T14:44:37;19.20;;;11.88;;
33654;SDS011;19997;51.274;22.506;2023-04-25T14:47:04;19.17;;;12.70;;